Terminal Aerodrome Forecast
Issued by NWS Pueblo, CO

Home | Current Version | Previous Version | Text Only | Print | Product List | Glossary On
Versions: 1 2 3 4 5 6 7 8 9 10 11 12 13 14 15 16 17 18 19
000
FTUS45 KPUB 031931 AAA
TAFALS
TAF AMD
KALS 031931Z 0320/0418 VRB05KT P6SM SCT013 SCT200
     FM040100 VRB04KT P6SM FEW013 SCT150=

USA.gov is the U.S. government's official web portal to all federal, state and local government web resources and services.